Time;durP1;ratioP1;P1;durP2;ratioP2;P2;SDS_P1;SDS_P2;PMS_P1;PMS_P2;Temp;Humidity;BMP_temperature;BMP_pressure;BME280_temperature;BME280_humidity;BME280_pressure;Samples;Min_cycle;Max_cycle;Signal;HPM_P1;HPM_P2
2023/02/04 00:02:26;;;;;;;31.50;9.70;;;27.90;72.60;;;;;;5067151;28;20056;-59
2023/02/04 00:04:53;;;;;;;23.80;9.32;;;27.80;73.00;;;;;;5066152;28;20078;-62
2023/02/04 00:07:23;;;;;;;22.60;10.50;;;27.70;73.50;;;;;;5066317;28;20033;-63
2023/02/04 00:09:49;;;;;;;29.63;9.40;;;27.70;73.70;;;;;;5066284;28;20225;-58
2023/02/04 00:12:16;;;;;;;30.05;9.57;;;27.60;73.90;;;;;;5066276;28;20036;-57
2023/02/04 00:14:43;;;;;;;35.10;10.45;;;27.60;74.00;;;;;;5065268;28;20024;-59
2023/02/04 00:17:11;;;;;;;33.00;10.88;;;27.60;73.80;;;;;;5065970;28;20087;-54
2023/02/04 00:19:39;;;;;;;26.83;10.43;;;27.70;73.60;;;;;;5066310;28;20036;-57
2023/02/04 00:22:07;;;;;;;33.15;10.30;;;27.80;73.60;;;;;;5066903;28;20028;-56
2023/02/04 00:24:35;;;;;;;30.95;9.93;;;27.80;73.40;;;;;;5066389;28;20092;-55
2023/02/04 00:27:02;;;;;;;22.67;10.35;;;27.90;73.40;;;;;;5066022;28;20024;-55
2023/02/04 00:29:29;;;;;;;29.27;9.90;;;27.90;73.20;;;;;;5065028;28;20029;-57
2023/02/04 00:31:56;;;;;;;33.28;9.55;;;28.00;73.10;;;;;;5066359;28;20169;-56
2023/02/04 00:34:23;;;;;;;20.65;9.63;;;28.00;72.80;;;;;;5065860;28;20028;-57
2023/02/04 00:36:49;;;;;;;22.58;9.07;;;28.00;72.70;;;;;;5066877;28;20024;-55
2023/02/04 00:39:16;;;;;;;20.15;9.18;;;28.00;72.50;;;;;;5066880;28;20021;-58
2023/02/04 00:41:42;;;;;;;26.92;8.95;;;28.00;72.30;;;;;;5066513;28;20033;-57
2023/02/04 00:44:10;;;;;;;17.65;8.07;;;28.00;72.30;;;;;;5066530;28;20060;-57
2023/02/04 00:46:36;;;;;;;22.42;9.20;;;28.00;72.20;;;;;;5066699;28;20031;-57
2023/02/04 00:49:05;;;;;;;27.27;8.32;;;28.10;71.90;;;;;;5066353;28;20029;-57
2023/02/04 00:51:32;;;;;;;25.85;8.02;;;28.10;71.90;;;;;;5066166;28;20028;-56
2023/02/04 00:53:58;;;;;;;29.98;8.13;;;28.10;72.00;;;;;;5066340;28;20166;-56
2023/02/04 00:56:25;;;;;;;19.80;7.82;;;28.10;71.80;;;;;;5065991;28;20198;-57
2023/02/04 00:58:52;;;;;;;22.55;7.75;;;28.10;71.80;;;;;;5066670;28;20041;-60
2023/02/04 01:01:19;;;;;;;16.95;8.20;;;28.10;71.50;;;;;;5066394;28;20044;-57
2023/02/04 01:03:46;;;;;;;17.15;8.05;;;28.10;71.50;;;;;;5066004;28;20024;-57
2023/02/04 01:06:12;;;;;;;23.48;8.30;;;28.00;71.20;;;;;;5066427;28;20029;-56
2023/02/04 01:08:42;;;;;;;20.52;8.05;;;28.10;71.30;;;;;;5066286;28;20115;-56
2023/02/04 01:11:09;;;;;;;16.83;7.90;;;28.00;71.00;;;;;;5065695;28;20029;-56
2023/02/04 01:13:35;;;;;;;23.33;7.65;;;28.00;71.00;;;;;;5066342;28;20099;-58
2023/02/04 01:16:02;;;;;;;18.95;7.57;;;28.00;70.70;;;;;;5065863;28;20021;-57
2023/02/04 01:18:29;;;;;;;25.15;7.55;;;28.00;70.50;;;;;;5065670;28;20034;-56
2023/02/04 01:20:55;;;;;;;14.30;6.97;;;28.00;70.80;;;;;;5065540;28;20227;-57
2023/02/04 01:23:22;;;;;;;24.20;8.55;;;28.00;70.20;;;;;;5066158;28;20033;-57
2023/02/04 01:25:48;;;;;;;23.90;7.88;;;28.00;70.10;;;;;;5065628;28;20032;-57
2023/02/04 01:28:15;;;;;;;18.88;7.78;;;28.00;70.30;;;;;;5065591;28;20201;-55
2023/02/04 01:30:41;;;;;;;15.95;7.78;;;28.00;70.20;;;;;;5065711;28;20304;-58
2023/02/04 01:33:08;;;;;;;20.98;7.85;;;28.00;70.10;;;;;;5065376;28;20020;-55
2023/02/04 01:35:35;;;;;;;14.75;8.30;;;28.00;70.00;;;;;;5065575;28;20036;-55
2023/02/04 01:38:01;;;;;;;20.75;7.78;;;28.00;69.80;;;;;;5065702;28;20021;-56
2023/02/04 01:40:28;;;;;;;24.23;7.38;;;28.00;69.80;;;;;;5065250;28;20070;-56
2023/02/04 01:42:55;;;;;;;12.07;7.07;;;28.00;69.60;;;;;;5065480;28;20103;-55
2023/02/04 01:45:21;;;;;;;14.75;7.30;;;28.00;69.60;;;;;;5065333;28;20048;-56
2023/02/04 01:47:48;;;;;;;13.27;7.90;;;28.00;69.50;;;;;;5065371;28;20033;-56
2023/02/04 01:50:16;;;;;;;14.80;7.03;;;28.00;69.50;;;;;;5064802;28;20126;-58
2023/02/04 01:52:44;;;;;;;14.90;7.07;;;28.00;69.50;;;;;;5065044;28;20013;-58
2023/02/04 01:55:21;;;;;;;16.70;7.72;;;27.90;69.50;;;;;;5064929;28;20214;-56
2023/02/04 01:57:51;;;;;;;22.58;8.30;;;27.90;69.60;;;;;;5065591;28;20092;-58
2023/02/04 02:00:26;;;;;;;21.55;7.55;;;28.00;69.60;;;;;;5064824;28;20037;-56
2023/02/04 02:02:53;;;;;;;13.85;7.78;;;27.90;69.60;;;;;;5065466;28;20122;-56
2023/02/04 02:05:31;;;;;;;14.30;7.50;;;27.90;69.60;;;;;;5064913;28;20296;-55
2023/02/04 02:08:01;;;;;;;9.48;7.47;;;27.90;69.70;;;;;;5064859;28;20028;-57
2023/02/04 02:10:28;;;;;;;16.38;7.85;;;27.90;69.60;;;;;;5064391;28;20095;-60
2023/02/04 02:12:55;;;;;;;12.45;7.72;;;27.90;69.70;;;;;;5065100;28;20198;-58
2023/02/04 02:15:23;;;;;;;21.75;8.32;;;27.90;69.90;;;;;;5064967;28;20021;-57
2023/02/04 02:17:51;;;;;;;23.42;9.15;;;27.80;70.00;;;;;;5065017;28;20037;-54
2023/02/04 02:20:21;;;;;;;26.20;9.60;;;27.80;70.10;;;;;;5064644;28;20036;-54
2023/02/04 02:23:06;;;;;;;35.92;11.18;;;27.90;70.30;;;;;;5064936;28;20025;-55
2023/02/04 02:25:33;;;;;;;45.20;11.45;;;27.80;70.40;;;;;;5064749;28;20300;-56
2023/02/04 02:28:01;;;;;;;45.50;12.85;;;27.80;70.50;;;;;;5065083;28;20064;-56
2023/02/04 02:30:28;;;;;;;40.58;12.93;;;27.80;70.50;;;;;;5064694;28;20217;-61
2023/02/04 02:32:55;;;;;;;32.75;12.63;;;27.80;70.50;;;;;;5064606;28;20029;-54
2023/02/04 02:35:22;;;;;;;22.30;11.70;;;27.80;70.50;;;;;;5064394;28;20047;-56
2023/02/04 02:37:49;;;;;;;22.17;11.77;;;27.70;70.50;;;;;;5064567;28;20087;-62
2023/02/04 02:40:15;;;;;;;19.95;9.90;;;27.70;71.00;;;;;;5064419;28;20039;-57
2023/02/04 02:42:44;;;;;;;24.83;10.07;;;27.70;70.40;;;;;;5064766;28;20040;-57
2023/02/04 02:45:24;;;;;;;21.77;9.90;;;27.70;70.40;;;;;;5064647;28;20052;-55
2023/02/04 02:47:51;;;;;;;17.23;8.90;;;27.70;70.40;;;;;;5064667;28;20359;-57
2023/02/04 02:50:22;;;;;;;20.70;8.90;;;27.70;70.40;;;;;;5063877;28;20348;-56
2023/02/04 02:52:49;;;;;;;32.15;10.05;;;27.70;70.40;;;;;;5071303;28;20016;-58
2023/02/04 02:55:18;;;;;;;21.90;9.20;;;27.70;70.40;;;;;;5083648;28;20108;-57
2023/02/04 02:57:47;;;;;;;31.52;9.07;;;27.70;70.30;;;;;;5080898;28;20025;-58
2023/02/04 03:00:16;;;;;;;19.13;8.68;;;27.70;70.20;;;;;;5073927;28;20206;-58
2023/02/04 03:02:44;;;;;;;19.40;8.68;;;27.70;70.10;;;;;;5079566;28;20225;-57
2023/02/04 03:05:12;;;;;;;15.20;7.55;;;27.70;70.30;;;;;;5083289;28;20070;-58
2023/02/04 03:07:39;;;;;;;16.95;7.85;;;27.70;70.10;;;;;;5081781;28;20063;-59
2023/02/04 03:10:06;;;;;;;13.20;7.45;;;27.70;70.10;;;;;;5076751;28;20036;-60
2023/02/04 03:12:33;;;;;;;12.23;7.45;;;27.60;70.00;;;;;;5075071;28;20093;-61
2023/02/04 03:14:59;;;;;;;8.65;7.00;;;27.60;69.80;;;;;;5083486;28;20093;-58
2023/02/04 03:17:26;;;;;;;13.93;8.07;;;27.70;70.00;;;;;;5083639;28;20016;-58
2023/02/04 03:19:52;;;;;;;11.20;7.18;;;27.60;70.10;;;;;;5083703;28;20056;-55
2023/02/04 03:22:19;;;;;;;11.95;7.40;;;27.60;70.10;;;;;;5083449;28;20056;-58
2023/02/04 03:24:46;;;;;;;15.45;7.72;;;27.70;70.00;;;;;;5083488;28;20078;-56
2023/02/04 03:27:14;;;;;;;11.85;7.88;;;27.70;70.00;;;;;;5083543;28;20036;-57
2023/02/04 03:29:45;;;;;;;11.30;7.35;;;27.70;70.10;;;;;;5081983;28;20308;-55
2023/02/04 03:32:12;;;;;;;14.35;7.85;;;27.60;69.90;;;;;;5083368;28;20032;-57
2023/02/04 03:34:39;;;;;;;13.05;8.25;;;27.60;70.10;;;;;;5083546;28;20012;-58
2023/02/04 03:37:06;;;;;;;14.00;8.50;;;27.60;70.20;;;;;;5076711;28;20033;-58
2023/02/04 03:39:33;;;;;;;12.68;7.97;;;27.60;70.20;;;;;;5063786;28;20064;-62
2023/02/04 03:41:59;;;;;;;8.90;7.90;;;27.60;70.10;;;;;;5063444;28;20029;-58
2023/02/04 03:44:26;;;;;;;10.10;7.63;;;27.60;70.10;;;;;;5063657;28;20053;-57
2023/02/04 03:46:54;;;;;;;11.40;7.95;;;27.60;70.00;;;;;;5063266;28;20043;-58
2023/02/04 03:49:24;;;;;;;8.05;7.15;;;27.60;70.00;;;;;;5063315;28;20033;-56
2023/02/04 03:51:50;;;;;;;10.30;7.78;;;27.60;70.00;;;;;;5063258;28;20033;-56
2023/02/04 03:54:18;;;;;;;10.23;7.43;;;27.50;69.80;;;;;;5063326;28;20191;-58
2023/02/04 03:56:45;;;;;;;8.35;7.32;;;27.50;69.60;;;;;;5063445;28;20134;-57
2023/02/04 03:59:11;;;;;;;8.77;7.55;;;27.50;69.60;;;;;;5063069;28;20067;-57
2023/02/04 04:01:38;;;;;;;11.63;8.05;;;27.50;69.50;;;;;;5063122;28;20017;-58
2023/02/04 04:04:04;;;;;;;8.40;7.57;;;27.50;69.50;;;;;;5063188;28;20078;-57
2023/02/04 04:06:31;;;;;;;10.85;7.50;;;27.50;69.40;;;;;;5066638;28;20013;-62
2023/02/04 04:08:57;;;;;;;10.75;7.35;;;27.50;69.50;;;;;;5066619;28;20079;-62
2023/02/04 04:11:24;;;;;;;8.23;7.30;;;27.50;69.40;;;;;;5066441;28;20229;-57
2023/02/04 04:13:50;;;;;;;10.65;7.47;;;27.50;69.90;;;;;;5066544;28;20351;-57
2023/02/04 04:16:19;;;;;;;10.27;7.32;;;27.50;69.30;;;;;;5066537;28;20024;-60
2023/02/04 04:18:46;;;;;;;10.05;7.68;;;27.50;69.40;;;;;;5066300;28;20029;-58
2023/02/04 04:21:12;;;;;;;9.88;7.28;;;27.50;69.30;;;;;;5066372;28;20036;-57
2023/02/04 04:23:39;;;;;;;10.05;7.15;;;27.50;69.30;;;;;;5066342;28;20021;-58
2023/02/04 04:26:05;;;;;;;9.13;7.05;;;27.50;69.20;;;;;;5066073;28;20039;-56
2023/02/04 04:28:32;;;;;;;10.15;7.75;;;27.40;69.20;;;;;;5066318;28;20036;-56
2023/02/04 04:30:58;;;;;;;9.52;7.88;;;27.50;69.20;;;;;;5066166;28;20305;-58
2023/02/04 04:33:25;;;;;;;10.60;7.50;;;27.40;69.20;;;;;;5065913;28;20032;-58
2023/02/04 04:35:51;;;;;;;10.20;7.78;;;27.40;69.10;;;;;;5066036;28;20039;-59
2023/02/04 04:38:18;;;;;;;8.63;7.40;;;27.40;69.10;;;;;;5066509;28;20029;-60
2023/02/04 04:40:45;;;;;;;9.13;7.65;;;27.40;69.10;;;;;;5065864;28;20044;-57
2023/02/04 04:43:12;;;;;;;8.10;7.30;;;27.40;69.10;;;;;;5066291;28;20081;-56
2023/02/04 04:45:38;;;;;;;10.82;8.00;;;27.40;69.10;;;;;;5066033;28;20045;-56
2023/02/04 04:48:05;;;;;;;8.57;7.65;;;27.40;69.10;;;;;;5066114;28;20024;-55
2023/02/04 04:50:32;;;;;;;9.30;7.43;;;27.40;69.10;;;;;;5065949;28;20033;-62
2023/02/04 04:52:58;;;;;;;8.32;7.47;;;27.40;69.10;;;;;;5066329;28;20021;-56
2023/02/04 04:55:25;;;;;;;9.13;7.93;;;27.40;69.10;;;;;;5065776;28;20017;-57
2023/02/04 04:57:51;;;;;;;12.32;7.78;;;27.40;69.10;;;;;;5066266;28;20028;-57
2023/02/04 05:00:20;;;;;;;10.65;7.85;;;27.40;69.10;;;;;;5065669;28;20191;-59
2023/02/04 05:02:46;;;;;;;10.10;7.82;;;27.30;69.10;;;;;;5065885;28;20243;-59
2023/02/04 05:05:13;;;;;;;10.40;7.90;;;27.40;69.00;;;;;;5065669;28;20032;-58
2023/02/04 05:07:41;;;;;;;11.55;7.78;;;27.40;69.00;;;;;;5065546;28;20259;-57
2023/02/04 05:10:08;;;;;;;12.48;8.07;;;27.40;69.10;;;;;;5065340;28;20036;-59
2023/02/04 05:12:34;;;;;;;12.15;7.88;;;27.30;69.00;;;;;;5065733;28;20355;-58
2023/02/04 05:15:01;;;;;;;12.35;7.80;;;27.30;69.00;;;;;;5065114;28;20384;-57
2023/02/04 05:17:28;;;;;;;13.13;7.70;;;27.30;69.00;;;;;;5065464;28;20033;-58
2023/02/04 05:19:54;;;;;;;8.75;7.43;;;27.30;69.00;;;;;;5065440;28;20088;-55
2023/02/04 05:22:21;;;;;;;12.02;7.65;;;27.30;68.90;;;;;;5065819;28;20033;-56
2023/02/04 05:24:47;;;;;;;8.60;7.70;;;27.30;69.00;;;;;;5065233;28;20045;-55
2023/02/04 05:27:14;;;;;;;9.15;7.72;;;27.30;69.00;;;;;;5065453;28;20043;-58
2023/02/04 05:29:40;;;;;;;8.93;7.75;;;27.30;69.00;;;;;;5065230;28;20054;-59
2023/02/04 05:32:07;;;;;;;10.68;7.78;;;27.20;69.00;;;;;;5065316;28;20019;-58
2023/02/04 05:34:33;;;;;;;8.38;7.57;;;27.20;69.00;;;;;;5065179;28;20100;-57
2023/02/04 05:37:00;;;;;;;10.40;8.25;;;27.20;69.10;;;;;;5065222;28;20035;-58
2023/02/04 05:39:27;;;;;;;13.20;8.02;;;27.20;69.10;;;;;;5067476;28;20033;-59
2023/02/04 05:41:54;;;;;;;12.05;8.27;;;27.20;69.10;;;;;;5083291;28;20047;-59
2023/02/04 05:44:20;;;;;;;12.90;7.90;;;27.20;69.10;;;;;;5064744;28;20345;-61
2023/02/04 05:46:47;;;;;;;12.30;8.70;;;27.10;69.10;;;;;;5064728;28;20028;-57
2023/02/04 05:49:13;;;;;;;12.50;8.40;;;27.10;69.10;;;;;;5064613;28;20332;-57
2023/02/04 05:51:40;;;;;;;14.43;8.55;;;27.10;69.00;;;;;;5064780;28;20100;-59
2023/02/04 05:54:06;;;;;;;12.82;8.13;;;27.10;69.00;;;;;;5064578;28;20305;-59
2023/02/04 05:56:33;;;;;;;9.70;8.70;;;27.10;69.00;;;;;;5064611;28;20016;-59
2023/02/04 05:59:00;;;;;;;11.27;8.13;;;27.10;69.00;;;;;;5064523;28;20386;-58
2023/02/04 06:01:26;;;;;;;13.40;8.60;;;27.00;68.90;;;;;;5068375;28;20020;-57
2023/02/04 06:03:53;;;;;;;12.25;8.73;;;27.00;69.00;;;;;;5075786;28;20036;-58
2023/02/04 06:06:19;;;;;;;13.35;8.45;;;27.00;69.00;;;;;;5072222;28;20029;-61
2023/02/04 06:08:46;;;;;;;10.95;8.50;;;27.00;69.00;;;;;;5064555;28;20036;-59
2023/02/04 06:11:12;;;;;;;13.07;8.98;;;27.00;69.00;;;;;;5064205;28;20054;-58
2023/02/04 06:13:39;;;;;;;9.60;8.63;;;27.00;69.10;;;;;;5064406;28;20021;-57
2023/02/04 06:16:06;;;;;;;14.30;9.02;;;26.90;69.00;;;;;;5064258;28;20021;-58
2023/02/04 06:18:32;;;;;;;13.13;9.00;;;26.90;69.00;;;;;;5064004;28;20039;-57
2023/02/04 06:20:59;;;;;;;11.25;8.73;;;26.90;69.00;;;;;;5064135;28;20049;-60
2023/02/04 06:23:26;;;;;;;9.52;8.50;;;26.90;69.10;;;;;;5064392;28;20037;-58
2023/02/04 06:25:52;;;;;;;13.00;9.00;;;26.90;69.10;;;;;;5069024;28;20038;-62
2023/02/04 06:28:19;;;;;;;11.20;8.88;;;26.90;69.10;;;;;;5072647;28;20024;-56
2023/02/04 06:30:45;;;;;;;10.02;8.57;;;26.90;69.20;;;;;;5064120;28;20086;-58
2023/02/04 06:33:12;;;;;;;13.13;9.18;;;26.90;69.20;;;;;;5064433;28;20017;-59
2023/02/04 06:35:38;;;;;;;11.27;8.65;;;26.80;69.10;;;;;;5063990;28;20064;-59
2023/02/04 06:38:05;;;;;;;13.30;8.48;;;26.80;69.10;;;;;;5067237;28;20020;-58
2023/02/04 06:40:31;;;;;;;8.70;7.85;;;26.80;69.00;;;;;;5074719;28;20060;-57
2023/02/04 06:42:58;;;;;;;10.32;8.60;;;26.80;69.10;;;;;;5068888;28;20035;-58
2023/02/04 06:45:25;;;;;;;10.13;9.13;;;26.80;69.10;;;;;;5063771;28;20080;-56
2023/02/04 06:47:51;;;;;;;9.30;8.40;;;26.80;69.00;;;;;;5064162;28;20029;-57
2023/02/04 06:50:18;;;;;;;10.82;9.13;;;26.80;69.50;;;;;;5063658;28;20351;-57
2023/02/04 06:52:45;;;;;;;10.52;8.25;;;26.80;68.90;;;;;;5064178;28;20339;-58
2023/02/04 06:55:13;;;;;;;12.32;9.00;;;26.80;68.80;;;;;;5063709;28;20325;-58
2023/02/04 06:57:40;;;;;;;10.57;8.70;;;26.80;68.70;;;;;;5063991;28;20021;-58
2023/02/04 07:00:09;;;;;;;10.93;8.88;;;26.80;68.60;;;;;;5063665;28;20100;-55
2023/02/04 07:02:38;;;;;;;9.73;8.75;;;26.80;68.40;;;;;;5063978;28;20201;-55
2023/02/04 07:05:04;;;;;;;10.68;8.73;;;26.80;68.20;;;;;;5063512;28;20040;-54
2023/02/04 07:07:31;;;;;;;9.65;8.65;;;26.80;68.20;;;;;;5063911;28;20036;-57
2023/02/04 07:09:58;;;;;;;11.73;9.70;;;26.80;68.10;;;;;;5063713;28;20017;-58
2023/02/04 07:12:25;;;;;;;11.68;9.55;;;26.80;67.90;;;;;;5063832;28;20302;-58
2023/02/04 07:14:51;;;;;;;10.73;9.63;;;26.80;67.80;;;;;;5063605;28;20017;-55
2023/02/04 07:17:18;;;;;;;11.00;9.68;;;26.70;67.80;;;;;;5063778;28;20055;-59
2023/02/04 07:19:44;;;;;;;10.57;9.45;;;26.70;67.80;;;;;;5063352;28;20206;-60
2023/02/04 07:22:11;;;;;;;10.35;9.27;;;26.70;68.00;;;;;;5063827;28;20017;-59
2023/02/04 07:24:37;;;;;;;12.27;9.73;;;26.70;67.90;;;;;;5063520;28;20064;-63
2023/02/04 07:27:04;;;;;;;10.90;9.73;;;26.70;68.00;;;;;;5063420;28;20029;-58
2023/02/04 07:29:30;;;;;;;11.95;10.10;;;26.70;68.10;;;;;;5063382;28;20221;-60
2023/02/04 07:31:57;;;;;;;12.57;10.25;;;26.60;68.00;;;;;;5063928;28;20047;-60
2023/02/04 07:34:24;;;;;;;11.13;9.95;;;26.60;68.00;;;;;;5063248;28;20293;-58
2023/02/04 07:36:50;;;;;;;13.68;10.15;;;26.60;68.50;;;;;;5063635;28;20060;-57
2023/02/04 07:39:17;;;;;;;15.98;10.60;;;26.60;68.00;;;;;;5065277;28;20040;-61
2023/02/04 07:41:43;;;;;;;14.15;10.45;;;26.60;68.50;;;;;;5083873;28;20021;-59
2023/02/04 07:44:10;;;;;;;14.05;10.30;;;26.60;68.00;;;;;;5087010;28;20115;-59
2023/02/04 07:46:37;;;;;;;12.15;9.52;;;26.60;68.00;;;;;;5087034;28;20047;-59
2023/02/04 07:49:03;;;;;;;11.82;10.30;;;26.50;68.00;;;;;;5087131;28;20338;-63
2023/02/04 07:51:30;;;;;;;12.18;10.93;;;26.50;68.10;;;;;;5087075;28;20020;-57
2023/02/04 07:53:56;;;;;;;11.93;9.73;;;26.50;68.00;;;;;;5086896;28;20029;-56
2023/02/04 07:56:23;;;;;;;11.77;10.25;;;26.50;68.00;;;;;;5086726;28;20035;-59
2023/02/04 07:58:50;;;;;;;12.20;10.90;;;26.50;68.10;;;;;;5086946;28;20189;-60
2023/02/04 08:01:16;;;;;;;11.52;10.40;;;26.50;67.90;;;;;;5086904;28;20028;-57
2023/02/04 08:03:43;;;;;;;10.63;9.52;;;26.50;67.80;;;;;;5086743;28;20032;-56
2023/02/04 08:06:09;;;;;;;11.45;10.25;;;26.50;67.80;;;;;;5086892;28;20044;-58
2023/02/04 08:08:36;;;;;;;13.23;10.18;;;26.40;67.40;;;;;;5086539;28;20035;-57
2023/02/04 08:11:03;;;;;;;12.65;10.68;;;26.40;67.40;;;;;;5086658;28;20026;-57
2023/02/04 08:13:29;;;;;;;15.07;10.32;;;26.40;67.30;;;;;;5086569;28;20054;-59
2023/02/04 08:15:56;;;;;;;13.13;10.48;;;26.40;67.40;;;;;;5086532;28;20213;-57
2023/02/04 08:18:23;;;;;;;13.63;10.00;;;26.40;67.40;;;;;;5087016;28;20111;-57
2023/02/04 08:20:50;;;;;;;13.82;10.38;;;26.50;67.30;;;;;;5086300;28;20201;-55
2023/02/04 08:23:17;;;;;;;10.85;9.80;;;26.50;67.10;;;;;;5086518;28;20089;-55
2023/02/04 08:25:44;;;;;;;13.32;9.90;;;26.50;67.10;;;;;;5086383;28;20036;-58
2023/02/04 08:28:11;;;;;;;14.40;10.65;;;26.50;67.10;;;;;;5086577;28;20067;-56
2023/02/04 08:30:37;;;;;;;14.60;10.60;;;26.50;67.00;;;;;;5086495;28;20223;-57
2023/02/04 08:33:04;;;;;;;11.55;10.35;;;26.50;66.90;;;;;;5086981;28;20024;-57
2023/02/04 08:35:31;;;;;;;11.10;10.00;;;26.50;66.80;;;;;;5086126;28;20021;-58
2023/02/04 08:37:57;;;;;;;10.90;9.80;;;26.50;66.70;;;;;;5086647;28;20024;-57
2023/02/04 08:40:24;;;;;;;11.13;9.57;;;26.40;66.60;;;;;;5086158;28;20036;-58
2023/02/04 08:42:50;;;;;;;14.57;10.60;;;26.40;66.60;;;;;;5086309;28;20064;-59
2023/02/04 08:45:17;;;;;;;12.10;10.75;;;26.40;66.60;;;;;;5085969;28;20048;-59
2023/02/04 08:47:43;;;;;;;13.23;10.88;;;26.40;66.60;;;;;;5086316;28;20046;-57
2023/02/04 08:50:10;;;;;;;15.57;11.07;;;26.40;66.50;;;;;;5074599;28;20078;-58
2023/02/04 08:52:37;;;;;;;12.95;10.52;;;26.50;66.60;;;;;;5066457;28;20312;-58
2023/02/04 08:55:04;;;;;;;14.30;10.57;;;26.50;66.50;;;;;;5065996;28;20050;-57
2023/02/04 08:57:30;;;;;;;13.85;10.75;;;26.40;66.40;;;;;;5065949;28;20055;-57
2023/02/04 08:59:57;;;;;;;12.15;10.82;;;26.50;66.50;;;;;;5065963;28;20078;-59
2023/02/04 09:02:24;;;;;;;12.70;10.20;;;26.40;66.30;;;;;;5065878;28;20035;-57
2023/02/04 09:04:50;;;;;;;12.48;10.55;;;26.50;66.40;;;;;;5065592;28;20256;-58
2023/02/04 09:07:17;;;;;;;12.80;10.25;;;26.40;66.30;;;;;;5065410;28;20341;-58
2023/02/04 09:09:43;;;;;;;14.95;10.63;;;26.50;66.30;;;;;;5065908;28;20028;-59
2023/02/04 09:12:10;;;;;;;14.68;10.00;;;26.40;66.30;;;;;;5065454;28;20019;-58
2023/02/04 09:14:36;;;;;;;13.57;10.15;;;26.50;66.20;;;;;;5065584;28;20029;-56
2023/02/04 09:17:04;;;;;;;14.60;10.43;;;26.40;66.20;;;;;;5065623;28;20028;-57
2023/02/04 09:19:31;;;;;;;11.68;10.45;;;26.50;66.30;;;;;;5065131;28;20040;-56
2023/02/04 09:21:57;;;;;;;11.90;9.63;;;26.50;66.30;;;;;;5065370;28;20032;-55
2023/02/04 09:24:24;;;;;;;16.27;10.35;;;26.50;66.40;;;;;;5065303;28;20049;-58
2023/02/04 09:26:51;;;;;;;11.50;10.27;;;26.40;66.30;;;;;;5065452;28;20103;-57
2023/02/04 09:29:17;;;;;;;14.45;10.15;;;26.40;66.30;;;;;;5065084;28;20264;-56
2023/02/04 09:31:44;;;;;;;12.10;10.15;;;26.50;66.40;;;;;;5065606;28;20055;-57
2023/02/04 09:34:10;;;;;;;12.60;10.23;;;26.50;66.30;;;;;;5067074;28;20044;-55
2023/02/04 09:36:37;;;;;;;11.65;10.07;;;26.40;66.20;;;;;;5079823;28;20025;-57
2023/02/04 09:39:05;;;;;;;12.95;10.00;;;26.50;66.20;;;;;;5085298;28;20028;-58
2023/02/04 09:41:33;;;;;;;11.65;10.05;;;26.50;66.10;;;;;;5084941;28;20292;-57
2023/02/04 09:44:00;;;;;;;13.25;10.68;;;26.40;65.90;;;;;;5084554;28;20067;-56
2023/02/04 09:46:28;;;;;;;13.75;10.40;;;26.50;65.90;;;;;;5084854;28;20069;-57
2023/02/04 09:48:57;;;;;;;11.73;10.50;;;26.50;65.90;;;;;;5084827;28;20028;-58
2023/02/04 09:51:27;;;;;;;11.93;10.65;;;26.50;65.90;;;;;;5084719;28;20034;-56
2023/02/04 09:54:02;;;;;;;12.57;10.07;;;26.50;66.40;;;;;;5084872;28;20020;-57
2023/02/04 09:56:29;;;;;;;12.98;10.32;;;26.50;65.80;;;;;;5084669;28;20048;-55
2023/02/04 09:58:56;;;;;;;13.63;9.77;;;26.50;65.80;;;;;;5084711;28;20021;-56
2023/02/04 10:01:22;;;;;;;11.88;10.32;;;26.50;65.80;;;;;;5084540;28;20224;-56
2023/02/04 10:03:50;;;;;;;11.55;10.35;;;26.50;65.80;;;;;;5084003;28;20324;-57
2023/02/04 10:06:18;;;;;;;12.30;10.18;;;26.40;65.70;;;;;;5084540;28;20024;-57
2023/02/04 10:08:47;;;;;;;11.80;10.00;;;26.40;65.80;;;;;;5084293;28;20100;-57
2023/02/04 10:11:16;;;;;;;12.52;10.30;;;26.40;65.80;;;;;;5084196;28;20043;-54
2023/02/04 10:13:46;;;;;;;12.05;9.77;;;26.40;65.70;;;;;;5084532;28;20020;-58
2023/02/04 10:16:16;;;;;;;12.57;10.13;;;26.40;65.90;;;;;;5083680;28;20025;-61
2023/02/04 10:18:44;;;;;;;14.95;10.40;;;26.40;65.90;;;;;;5084373;28;20085;-59
2023/02/04 10:21:31;;;;;;;15.13;10.63;;;26.40;65.90;;;;;;5083136;28;20039;-55
2023/02/04 10:24:00;;;;;;;13.57;9.52;;;26.40;66.00;;;;;;5083955;28;20035;-56
2023/02/04 10:26:29;;;;;;;16.98;10.43;;;26.40;66.00;;;;;;5084450;28;20028;-60
2023/02/04 10:29:11;;;;;;;12.43;10.23;;;26.40;66.10;;;;;;5084131;28;20087;-59
2023/02/04 10:31:41;;;;;;;16.17;10.52;;;26.40;66.10;;;;;;5084128;28;20033;-58
2023/02/04 10:34:12;;;;;;;13.77;9.98;;;26.40;66.10;;;;;;5084006;28;20046;-57
2023/02/04 10:36:40;;;;;;;17.85;10.52;;;26.40;66.20;;;;;;5083978;28;20028;-59
2023/02/04 10:39:11;;;;;;;14.48;10.45;;;26.40;66.20;;;;;;5084080;28;20016;-59
2023/02/04 10:41:43;;;;;;;15.77;10.13;;;26.40;66.40;;;;;;5083804;28;20074;-59
2023/02/04 10:44:12;;;;;;;15.07;10.38;;;26.30;66.30;;;;;;5083877;28;20056;-59
2023/02/04 10:46:39;;;;;;;14.35;9.65;;;26.40;66.20;;;;;;5084176;28;20092;-59
2023/02/04 10:49:23;;;;;;;16.88;10.50;;;26.30;66.10;;;;;;5083816;28;20024;-57
2023/02/04 10:51:51;;;;;;;15.10;9.60;;;26.30;66.10;;;;;;5083803;28;20025;-58
2023/02/04 10:54:30;;;;;;;14.32;10.27;;;26.30;65.80;;;;;;5083955;28;20017;-55
2023/02/04 10:56:59;;;;;;;15.80;10.20;;;26.30;65.90;;;;;;5083879;28;20362;-58
2023/02/04 10:59:26;;;;;;;16.73;10.10;;;26.30;66.00;;;;;;5083838;28;20055;-57
2023/02/04 11:01:56;;;;;;;17.63;10.30;;;26.30;65.80;;;;;;5078512;28;20048;-60
2023/02/04 11:04:23;;;;;;;17.48;10.48;;;26.30;65.70;;;;;;5083745;28;20051;-58
2023/02/04 11:06:51;;;;;;;18.05;10.65;;;26.30;65.70;;;;;;5078280;28;20017;-58
2023/02/04 11:09:19;;;;;;;26.10;10.38;;;26.30;65.70;;;;;;5066198;28;20032;-58
2023/02/04 11:11:50;;;;;;;18.45;10.90;;;26.30;65.70;;;;;;5072271;28;20017;-57
2023/02/04 11:14:28;;;;;;;23.67;10.55;;;26.30;66.00;;;;;;5076560;28;20031;-55
2023/02/04 11:17:00;;;;;;;21.48;11.18;;;26.30;66.10;;;;;;5087935;28;20032;-55
2023/02/04 11:19:38;;;;;;;33.33;11.25;;;26.30;66.40;;;;;;5087647;28;20079;-63
2023/02/04 11:22:08;;;;;;;26.20;11.10;;;26.30;66.30;;;;;;5082663;28;20208;-58
2023/02/04 11:24:34;;;;;;;39.47;12.20;;;26.20;66.70;;;;;;5077643;28;20032;-60
2023/02/04 11:27:23;;;;;;;27.60;10.98;;;26.00;67.00;;;;;;5073243;28;20025;-59
2023/02/04 11:29:50;;;;;;;46.65;11.82;;;26.00;67.30;;;;;;5067315;28;20029;-57
2023/02/04 11:32:37;;;;;;;32.80;10.98;;;26.00;67.60;;;;;;5085671;28;20228;-55
2023/02/04 11:35:22;;;;;;;33.20;11.60;;;26.00;67.80;;;;;;5087884;28;20039;-58
2023/02/04 11:37:49;;;;;;;29.20;11.30;;;26.00;67.70;;;;;;5088118;28;20259;-59
2023/02/04 11:40:33;;;;;;;22.23;10.52;;;26.00;67.70;;;;;;5088209;28;20033;-58
2023/02/04 11:43:13;;;;;;;31.38;10.60;;;26.00;67.60;;;;;;5086748;28;20121;-54
2023/02/04 11:45:41;;;;;;;31.50;10.70;;;26.10;67.60;;;;;;5085873;28;20075;-56
2023/02/04 11:48:20;;;;;;;28.02;9.85;;;26.10;67.50;;;;;;5087694;28;20036;-59
2023/02/04 11:51:01;;;;;;;28.75;10.15;;;26.20;67.60;;;;;;5087738;28;20301;-57
2023/02/04 11:53:30;;;;;;;14.93;9.32;;;26.20;67.60;;;;;;5087953;28;20035;-57
2023/02/04 11:55:57;;;;;;;23.75;10.35;;;26.20;67.60;;;;;;5087487;28;20040;-58
2023/02/04 11:58:25;;;;;;;27.98;9.98;;;26.20;67.70;;;;;;5088227;28;20047;-56
2023/02/04 12:00:52;;;;;;;27.35;9.75;;;26.30;67.70;;;;;;5087778;28;20036;-59
2023/02/04 12:03:30;;;;;;;20.02;9.30;;;26.30;67.70;;;;;;5087958;28;20297;-57
2023/02/04 12:05:58;;;;;;;29.30;9.43;;;26.30;67.80;;;;;;5087317;28;20037;-59
2023/02/04 12:08:36;;;;;;;25.38;9.93;;;26.30;67.90;;;;;;5087522;28;20032;-59
2023/02/04 12:11:28;;;;;;;34.35;9.65;;;26.30;68.00;;;;;;5087047;28;20036;-54
2023/02/04 12:13:55;;;;;;;29.90;10.10;;;26.40;68.30;;;;;;5086742;28;20032;-59
2023/02/04 12:16:23;;;;;;;22.20;10.32;;;26.40;68.50;;;;;;5086810;28;20036;-58
2023/02/04 12:18:50;;;;;;;29.70;10.98;;;26.40;68.60;;;;;;5086992;28;20060;-57
2023/02/04 12:21:20;;;;;;;27.55;10.50;;;26.40;68.70;;;;;;5087282;28;20305;-58
2023/02/04 12:23:47;;;;;;;20.65;9.93;;;26.40;68.90;;;;;;5087248;28;20060;-58
2023/02/04 12:26:13;;;;;;;24.05;10.50;;;26.40;69.10;;;;;;5085643;28;20028;-58
2023/02/04 12:28:41;;;;;;;17.15;10.57;;;26.50;69.30;;;;;;5086844;28;20060;-59
2023/02/04 12:31:08;;;;;;;26.48;11.52;;;26.40;69.50;;;;;;5086797;28;20019;-60
2023/02/04 12:33:34;;;;;;;18.80;10.88;;;26.50;70.10;;;;;;5087175;28;20092;-57
2023/02/04 12:36:01;;;;;;;26.30;10.85;;;26.50;70.20;;;;;;5086892;28;20017;-56
2023/02/04 12:38:27;;;;;;;31.17;11.38;;;26.50;69.60;;;;;;5086792;28;20043;-59